<?xml version="1.0" encoding="UTF-8" standalone="no" ?>
<gpx xmlns="http://www.topografix.com/GPX/1/1" xmlns:xsi="http://www.w3.org/2001/XMLSchema-instance" xsi:schemaLocation="http://www.topografix.com/GPX/1/1 http://www.topografix.com/GPX/1/1/gpx.xsd" version="1.1" creator="VisuGPX - https://www.visugpx.com">
  <metadata>
    <name>Autour de Vertou</name>
    <desc><![CDATA[Petite boucle à faire en famille, de préférence par temps sec, ou en soirée pour parfaire sa condition.]]></desc>
  </metadata>
  <trk>
    <name><![CDATA[vertonne 2016-BALISAGE C1B-13km]]></name>
    <trkseg>
      <trkpt lat="47.15014" lon="-1.40022">
        <ele>14.230462</ele>
        <time>2016-01-15T19:55:12Z</time>
      </trkpt>
      <trkpt lat="47.15024" lon="-1.40091">
        <ele>16.362768</ele>
        <time>2016-01-15T19:57:12Z</time>
      </trkpt>
      <trkpt lat="47.15081" lon="-1.40198">
        <ele>22.486418</ele>
        <time>2016-01-15T19:59:12Z</time>
      </trkpt>
      <trkpt lat="47.15092" lon="-1.40261">
        <ele>23.80596</ele>
        <time>2016-01-15T20:01:12Z</time>
      </trkpt>
      <trkpt lat="47.151" lon="-1.4031">
        <ele>25.154291</ele>
        <time>2016-01-15T20:03:12Z</time>
      </trkpt>
      <trkpt lat="47.15126" lon="-1.4034">
        <ele>26.249477</ele>
        <time>2016-01-15T20:05:12Z</time>
      </trkpt>
      <trkpt lat="47.15152" lon="-1.40349">
        <ele>27.834585</ele>
        <time>2016-01-15T20:07:12Z</time>
      </trkpt>
      <trkpt lat="47.15181" lon="-1.40349">
        <ele>28.532455</ele>
        <time>2016-01-15T20:09:12Z</time>
      </trkpt>
      <trkpt lat="47.15206" lon="-1.40325">
        <ele>28.768419</ele>
        <time>2016-01-15T20:11:12Z</time>
      </trkpt>
      <trkpt lat="47.1523" lon="-1.40254">
        <ele>31.242994</ele>
        <time>2016-01-15T20:13:12Z</time>
      </trkpt>
      <trkpt lat="47.15251" lon="-1.40143">
        <ele>35.013748</ele>
        <time>2016-01-15T20:15:12Z</time>
      </trkpt>
      <trkpt lat="47.15269" lon="-1.40101">
        <ele>36.313751</ele>
        <time>2016-01-15T20:17:12Z</time>
      </trkpt>
      <trkpt lat="47.1529" lon="-1.40066">
        <ele>36</ele>
        <time>2016-01-15T20:19:12Z</time>
      </trkpt>
      <trkpt lat="47.1527" lon="-1.40007">
        <ele>38</ele>
        <time>2016-01-15T20:21:12Z</time>
      </trkpt>
      <trkpt lat="47.15207" lon="-1.39899">
        <ele>41</ele>
        <time>2016-01-15T20:23:12Z</time>
      </trkpt>
      <trkpt lat="47.15196" lon="-1.39858">
        <ele>42</ele>
        <time>2016-01-15T20:25:12Z</time>
      </trkpt>
      <trkpt lat="47.15106" lon="-1.39828">
        <ele>38</ele>
        <time>2016-01-15T20:27:12Z</time>
      </trkpt>
      <trkpt lat="47.15059" lon="-1.3966">
        <ele>36</ele>
        <time>2016-01-15T20:29:12Z</time>
      </trkpt>
      <trkpt lat="47.15035" lon="-1.39551">
        <ele>33</ele>
        <time>2016-01-15T20:31:12Z</time>
      </trkpt>
      <trkpt lat="47.15027" lon="-1.39498">
        <ele>35</ele>
        <time>2016-01-15T20:33:12Z</time>
      </trkpt>
      <trkpt lat="47.1498" lon="-1.3945">
        <ele>33</ele>
        <time>2016-01-15T20:35:12Z</time>
      </trkpt>
      <trkpt lat="47.14938" lon="-1.39361">
        <ele>41</ele>
        <time>2016-01-15T20:37:12Z</time>
      </trkpt>
      <trkpt lat="47.14908" lon="-1.3933">
        <ele>44</ele>
        <time>2016-01-15T20:39:12Z</time>
      </trkpt>
      <trkpt lat="47.14861" lon="-1.3931">
        <ele>42</ele>
        <time>2016-01-15T20:41:12Z</time>
      </trkpt>
      <trkpt lat="47.14895" lon="-1.39274">
        <ele>47</ele>
        <time>2016-01-15T20:43:12Z</time>
      </trkpt>
      <trkpt lat="47.14926" lon="-1.39238">
        <ele>50</ele>
        <time>2016-01-15T20:45:12Z</time>
      </trkpt>
      <trkpt lat="47.14978" lon="-1.39194">
        <ele>52</ele>
        <time>2016-01-15T20:47:12Z</time>
      </trkpt>
      <trkpt lat="47.15052" lon="-1.39128">
        <ele>54</ele>
        <time>2016-01-15T20:49:12Z</time>
      </trkpt>
      <trkpt lat="47.1511" lon="-1.39088">
        <ele>57</ele>
        <time>2016-01-15T20:51:12Z</time>
      </trkpt>
      <trkpt lat="47.15154" lon="-1.38953">
        <ele>56</ele>
        <time>2016-01-15T20:53:12Z</time>
      </trkpt>
      <trkpt lat="47.15199" lon="-1.38761">
        <ele>55</ele>
        <time>2016-01-15T20:55:12Z</time>
      </trkpt>
      <trkpt lat="47.15237" lon="-1.38546">
        <ele>53</ele>
        <time>2016-01-15T20:57:12Z</time>
      </trkpt>
      <trkpt lat="47.15261" lon="-1.38591">
        <ele>55</ele>
        <time>2016-01-15T20:59:12Z</time>
      </trkpt>
      <trkpt lat="47.15308" lon="-1.38602">
        <ele>56</ele>
        <time>2016-01-15T21:01:12Z</time>
      </trkpt>
      <trkpt lat="47.15382" lon="-1.38637">
        <ele>55</ele>
        <time>2016-01-15T21:03:12Z</time>
      </trkpt>
      <trkpt lat="47.15498" lon="-1.38599">
        <ele>50</ele>
        <time>2016-01-15T21:05:12Z</time>
      </trkpt>
      <trkpt lat="47.15573" lon="-1.38581">
        <ele>47</ele>
        <time>2016-01-15T21:07:12Z</time>
      </trkpt>
      <trkpt lat="47.15654" lon="-1.38584">
        <ele>44</ele>
        <time>2016-01-15T21:09:12Z</time>
      </trkpt>
      <trkpt lat="47.15673" lon="-1.3856">
        <ele>43</ele>
        <time>2016-01-15T21:11:12Z</time>
      </trkpt>
      <trkpt lat="47.157" lon="-1.38568">
        <ele>41</ele>
        <time>2016-01-15T21:13:12Z</time>
      </trkpt>
      <trkpt lat="47.15693" lon="-1.38619">
        <ele>42</ele>
        <time>2016-01-15T21:15:12Z</time>
      </trkpt>
      <trkpt lat="47.15715" lon="-1.38773">
        <ele>43</ele>
        <time>2016-01-15T21:17:12Z</time>
      </trkpt>
      <trkpt lat="47.15724" lon="-1.39041">
        <ele>41</ele>
        <time>2016-01-15T21:19:12Z</time>
      </trkpt>
      <trkpt lat="47.15766" lon="-1.39219">
        <ele>40</ele>
        <time>2016-01-15T21:21:12Z</time>
      </trkpt>
      <trkpt lat="47.15846" lon="-1.39442">
        <ele>38</ele>
        <time>2016-01-15T21:23:12Z</time>
      </trkpt>
      <trkpt lat="47.15882" lon="-1.39534">
        <ele>36</ele>
        <time>2016-01-15T21:25:12Z</time>
      </trkpt>
      <trkpt lat="47.15953" lon="-1.39641">
        <ele>36</ele>
        <time>2016-01-15T21:27:12Z</time>
      </trkpt>
      <trkpt lat="47.1601" lon="-1.39688">
        <ele>35</ele>
        <time>2016-01-15T21:29:12Z</time>
      </trkpt>
      <trkpt lat="47.16078" lon="-1.39735">
        <ele>32</ele>
        <time>2016-01-15T21:31:12Z</time>
      </trkpt>
      <trkpt lat="47.16159" lon="-1.39757">
        <ele>28</ele>
        <time>2016-01-15T21:33:12Z</time>
      </trkpt>
      <trkpt lat="47.16181" lon="-1.39812">
        <ele>29</ele>
        <time>2016-01-15T21:35:12Z</time>
      </trkpt>
      <trkpt lat="47.16253" lon="-1.39924">
        <ele>27</ele>
        <time>2016-01-15T21:37:12Z</time>
      </trkpt>
      <trkpt lat="47.16302" lon="-1.39972">
        <ele>27</ele>
        <time>2016-01-15T21:39:12Z</time>
      </trkpt>
      <trkpt lat="47.1634" lon="-1.40019">
        <ele>27</ele>
        <time>2016-01-15T21:41:12Z</time>
      </trkpt>
      <trkpt lat="47.16387" lon="-1.40051">
        <ele>26</ele>
        <time>2016-01-15T21:43:12Z</time>
      </trkpt>
      <trkpt lat="47.16455" lon="-1.40112">
        <ele>26</ele>
        <time>2016-01-15T21:45:12Z</time>
      </trkpt>
      <trkpt lat="47.16518" lon="-1.40207">
        <ele>26</ele>
        <time>2016-01-15T21:47:12Z</time>
      </trkpt>
      <trkpt lat="47.16526" lon="-1.40234">
        <ele>27</ele>
        <time>2016-01-15T21:49:12Z</time>
      </trkpt>
      <trkpt lat="47.16535" lon="-1.40254">
        <ele>27</ele>
        <time>2016-01-15T21:51:12Z</time>
      </trkpt>
      <trkpt lat="47.16513" lon="-1.40291">
        <ele>28</ele>
        <time>2016-01-15T21:53:12Z</time>
      </trkpt>
      <trkpt lat="47.16539" lon="-1.40417">
        <ele>31</ele>
        <time>2016-01-15T21:55:12Z</time>
      </trkpt>
      <trkpt lat="47.1653" lon="-1.40558">
        <ele>35</ele>
        <time>2016-01-15T21:57:12Z</time>
      </trkpt>
      <trkpt lat="47.16515" lon="-1.40681">
        <ele>38</ele>
        <time>2016-01-15T21:59:12Z</time>
      </trkpt>
      <trkpt lat="47.16508" lon="-1.40875">
        <ele>41</ele>
        <time>2016-01-15T22:01:12Z</time>
      </trkpt>
      <trkpt lat="47.16718" lon="-1.40954">
        <ele>40</ele>
        <time>2016-01-15T22:03:12Z</time>
      </trkpt>
      <trkpt lat="47.1676" lon="-1.40954">
        <ele>38</ele>
        <time>2016-01-15T22:05:12Z</time>
      </trkpt>
      <trkpt lat="47.16932" lon="-1.40829">
        <ele>33</ele>
        <time>2016-01-15T22:07:12Z</time>
      </trkpt>
      <trkpt lat="47.17084" lon="-1.41063">
        <ele>30</ele>
        <time>2016-01-15T22:09:12Z</time>
      </trkpt>
      <trkpt lat="47.17156" lon="-1.41187">
        <ele>27</ele>
        <time>2016-01-15T22:11:12Z</time>
      </trkpt>
      <trkpt lat="47.17193" lon="-1.41253">
        <ele>26</ele>
        <time>2016-01-15T22:13:12Z</time>
      </trkpt>
      <trkpt lat="47.17292" lon="-1.41234">
        <ele>27</ele>
        <time>2016-01-15T22:15:12Z</time>
      </trkpt>
      <trkpt lat="47.17332" lon="-1.41434">
        <ele>24</ele>
        <time>2016-01-15T22:17:12Z</time>
      </trkpt>
      <trkpt lat="47.17443" lon="-1.41676">
        <ele>23</ele>
        <time>2016-01-15T22:19:12Z</time>
      </trkpt>
      <trkpt lat="47.17503" lon="-1.4179">
        <ele>22</ele>
        <time>2016-01-15T22:21:12Z</time>
      </trkpt>
      <trkpt lat="47.17565" lon="-1.41943">
        <ele>25</ele>
        <time>2016-01-15T22:23:12Z</time>
      </trkpt>
      <trkpt lat="47.17617" lon="-1.42039">
        <ele>28</ele>
        <time>2016-01-15T22:25:12Z</time>
      </trkpt>
      <trkpt lat="47.17656" lon="-1.42124">
        <ele>28</ele>
        <time>2016-01-15T22:27:12Z</time>
      </trkpt>
      <trkpt lat="47.17688" lon="-1.42247">
        <ele>29</ele>
        <time>2016-01-15T22:29:12Z</time>
      </trkpt>
      <trkpt lat="47.17731" lon="-1.42321">
        <ele>31</ele>
        <time>2016-01-15T22:31:12Z</time>
      </trkpt>
      <trkpt lat="47.17744" lon="-1.42371">
        <ele>32</ele>
        <time>2016-01-15T22:33:12Z</time>
      </trkpt>
      <trkpt lat="47.17798" lon="-1.42447">
        <ele>32</ele>
        <time>2016-01-15T22:35:12Z</time>
      </trkpt>
      <trkpt lat="47.17829" lon="-1.42526">
        <ele>31</ele>
        <time>2016-01-15T22:37:12Z</time>
      </trkpt>
      <trkpt lat="47.17877" lon="-1.42749">
        <ele>29</ele>
        <time>2016-01-15T22:39:12Z</time>
      </trkpt>
      <trkpt lat="47.17914" lon="-1.42809">
        <ele>31</ele>
        <time>2016-01-15T22:41:12Z</time>
      </trkpt>
      <trkpt lat="47.17965" lon="-1.42902">
        <ele>35</ele>
        <time>2016-01-15T22:43:12Z</time>
      </trkpt>
      <trkpt lat="47.18021" lon="-1.42972">
        <ele>38</ele>
        <time>2016-01-15T22:45:12Z</time>
      </trkpt>
      <trkpt lat="47.18045" lon="-1.43069">
        <ele>37</ele>
        <time>2016-01-15T22:47:12Z</time>
      </trkpt>
      <trkpt lat="47.18053" lon="-1.43179">
        <ele>38</ele>
        <time>2016-01-15T22:49:12Z</time>
      </trkpt>
      <trkpt lat="47.1804" lon="-1.433">
        <ele>36</ele>
        <time>2016-01-15T22:51:12Z</time>
      </trkpt>
      <trkpt lat="47.18023" lon="-1.43355">
        <ele>36</ele>
        <time>2016-01-15T22:53:12Z</time>
      </trkpt>
      <trkpt lat="47.18018" lon="-1.43414">
        <ele>37</ele>
        <time>2016-01-15T22:55:12Z</time>
      </trkpt>
      <trkpt lat="47.17995" lon="-1.43511">
        <ele>38</ele>
        <time>2016-01-15T22:57:12Z</time>
      </trkpt>
      <trkpt lat="47.17993" lon="-1.43579">
        <ele>37</ele>
        <time>2016-01-15T22:59:12Z</time>
      </trkpt>
      <trkpt lat="47.17977" lon="-1.43649">
        <ele>36</ele>
        <time>2016-01-15T23:01:12Z</time>
      </trkpt>
      <trkpt lat="47.17936" lon="-1.43799">
        <ele>35</ele>
        <time>2016-01-15T23:03:12Z</time>
      </trkpt>
      <trkpt lat="47.17909" lon="-1.43865">
        <ele>35</ele>
        <time>2016-01-15T23:05:12Z</time>
      </trkpt>
      <trkpt lat="47.17865" lon="-1.43961">
        <ele>33</ele>
        <time>2016-01-15T23:07:12Z</time>
      </trkpt>
      <trkpt lat="47.17795" lon="-1.44092">
        <ele>31</ele>
        <time>2016-01-15T23:09:12Z</time>
      </trkpt>
      <trkpt lat="47.17805" lon="-1.44165">
        <ele>31</ele>
        <time>2016-01-15T23:11:12Z</time>
      </trkpt>
      <trkpt lat="47.1785" lon="-1.44224">
        <ele>31</ele>
        <time>2016-01-15T23:13:12Z</time>
      </trkpt>
      <trkpt lat="47.17894" lon="-1.44293">
        <ele>30</ele>
        <time>2016-01-15T23:15:12Z</time>
      </trkpt>
      <trkpt lat="47.17887" lon="-1.44323">
        <ele>29</ele>
        <time>2016-01-15T23:17:12Z</time>
      </trkpt>
      <trkpt lat="47.17842" lon="-1.44364">
        <ele>29</ele>
        <time>2016-01-15T23:19:12Z</time>
      </trkpt>
      <trkpt lat="47.17848" lon="-1.44409">
        <ele>28</ele>
        <time>2016-01-15T23:21:12Z</time>
      </trkpt>
      <trkpt lat="47.17902" lon="-1.44624">
        <ele>27</ele>
        <time>2016-01-15T23:23:12Z</time>
      </trkpt>
      <trkpt lat="47.17872" lon="-1.44639">
        <ele>27</ele>
        <time>2016-01-15T23:25:12Z</time>
      </trkpt>
      <trkpt lat="47.17981" lon="-1.45092">
        <ele>27</ele>
        <time>2016-01-15T23:27:12Z</time>
      </trkpt>
      <trkpt lat="47.18069" lon="-1.45498">
        <ele>22</ele>
        <time>2016-01-15T23:29:12Z</time>
      </trkpt>
      <trkpt lat="47.18098" lon="-1.45609">
        <ele>22</ele>
        <time>2016-01-15T23:31:12Z</time>
      </trkpt>
      <trkpt lat="47.18085" lon="-1.45697">
        <ele>22</ele>
        <time>2016-01-15T23:33:12Z</time>
      </trkpt>
      <trkpt lat="47.1805" lon="-1.45812">
        <ele>22</ele>
        <time>2016-01-15T23:35:12Z</time>
      </trkpt>
      <trkpt lat="47.18007" lon="-1.45867">
        <ele>19</ele>
        <time>2016-01-15T23:37:12Z</time>
      </trkpt>
      <trkpt lat="47.18006" lon="-1.45867">
        <ele>19</ele>
        <time>2016-01-15T23:39:12Z</time>
      </trkpt>
      <trkpt lat="47.17962" lon="-1.458">
        <ele>19</ele>
        <time>2016-01-15T23:41:12Z</time>
      </trkpt>
      <trkpt lat="47.17906" lon="-1.4575">
        <ele>20</ele>
        <time>2016-01-15T23:43:12Z</time>
      </trkpt>
      <trkpt lat="47.17826" lon="-1.45615">
        <ele>20</ele>
        <time>2016-01-15T23:45:12Z</time>
      </trkpt>
      <trkpt lat="47.17822" lon="-1.4559">
        <ele>21</ele>
        <time>2016-01-15T23:47:12Z</time>
      </trkpt>
      <trkpt lat="47.17736" lon="-1.45486">
        <ele>22</ele>
        <time>2016-01-15T23:49:12Z</time>
      </trkpt>
      <trkpt lat="47.1769" lon="-1.45463">
        <ele>24</ele>
        <time>2016-01-15T23:51:12Z</time>
      </trkpt>
      <trkpt lat="47.17621" lon="-1.45421">
        <ele>26</ele>
        <time>2016-01-15T23:53:12Z</time>
      </trkpt>
      <trkpt lat="47.1757" lon="-1.45392">
        <ele>26</ele>
        <time>2016-01-15T23:55:12Z</time>
      </trkpt>
      <trkpt lat="47.17524" lon="-1.45357">
        <ele>27</ele>
        <time>2016-01-15T23:57:12Z</time>
      </trkpt>
      <trkpt lat="47.17477" lon="-1.45329">
        <ele>27</ele>
        <time>2016-01-15T23:59:12Z</time>
      </trkpt>
      <trkpt lat="47.17406" lon="-1.45374">
        <ele>28</ele>
        <time>2016-01-16T00:01:12Z</time>
      </trkpt>
      <trkpt lat="47.17345" lon="-1.45371">
        <ele>29</ele>
        <time>2016-01-16T00:03:12Z</time>
      </trkpt>
      <trkpt lat="47.17276" lon="-1.45324">
        <ele>31</ele>
        <time>2016-01-16T00:05:12Z</time>
      </trkpt>
      <trkpt lat="47.17134" lon="-1.45367">
        <ele>34</ele>
        <time>2016-01-16T00:07:12Z</time>
      </trkpt>
      <trkpt lat="47.17066" lon="-1.45394">
        <ele>37</ele>
        <time>2016-01-16T00:09:12Z</time>
      </trkpt>
      <trkpt lat="47.16953" lon="-1.45462">
        <ele>39</ele>
        <time>2016-01-16T00:11:12Z</time>
      </trkpt>
      <trkpt lat="47.16865" lon="-1.45528">
        <ele>39</ele>
        <time>2016-01-16T00:13:12Z</time>
      </trkpt>
      <trkpt lat="47.16871" lon="-1.45686">
        <ele>40</ele>
        <time>2016-01-16T00:15:12Z</time>
      </trkpt>
      <trkpt lat="47.16881" lon="-1.45758">
        <ele>41</ele>
        <time>2016-01-16T00:17:12Z</time>
      </trkpt>
      <trkpt lat="47.16894" lon="-1.45772">
        <ele>41</ele>
        <time>2016-01-16T00:19:12Z</time>
      </trkpt>
      <trkpt lat="47.16898" lon="-1.45804">
        <ele>41</ele>
        <time>2016-01-16T00:21:12Z</time>
      </trkpt>
      <trkpt lat="47.16868" lon="-1.45805">
        <ele>41</ele>
        <time>2016-01-16T00:23:12Z</time>
      </trkpt>
      <trkpt lat="47.16805" lon="-1.45847">
        <ele>40</ele>
        <time>2016-01-16T00:25:12Z</time>
      </trkpt>
      <trkpt lat="47.16646" lon="-1.45956">
        <ele>38</ele>
        <time>2016-01-16T00:27:12Z</time>
      </trkpt>
      <trkpt lat="47.16555" lon="-1.46045">
        <ele>36</ele>
        <time>2016-01-16T00:29:12Z</time>
      </trkpt>
      <trkpt lat="47.16551" lon="-1.4607">
        <ele>36</ele>
        <time>2016-01-16T00:31:12Z</time>
      </trkpt>
      <trkpt lat="47.16541" lon="-1.46094">
        <ele>36</ele>
        <time>2016-01-16T00:33:12Z</time>
      </trkpt>
      <trkpt lat="47.16521" lon="-1.46106">
        <ele>36</ele>
        <time>2016-01-16T00:35:12Z</time>
      </trkpt>
      <trkpt lat="47.16513" lon="-1.46093">
        <ele>35</ele>
        <time>2016-01-16T00:37:12Z</time>
      </trkpt>
      <trkpt lat="47.16499" lon="-1.46106">
        <ele>35</ele>
        <time>2016-01-16T00:39:12Z</time>
      </trkpt>
      <trkpt lat="47.16457" lon="-1.46157">
        <ele>35</ele>
        <time>2016-01-16T00:41:12Z</time>
      </trkpt>
      <trkpt lat="47.1639" lon="-1.46245">
        <ele>38</ele>
        <time>2016-01-16T00:43:12Z</time>
      </trkpt>
      <trkpt lat="47.16383" lon="-1.46264">
        <ele>38</ele>
        <time>2016-01-16T00:45:12Z</time>
      </trkpt>
      <trkpt lat="47.16359" lon="-1.46306">
        <ele>38</ele>
        <time>2016-01-16T00:47:12Z</time>
      </trkpt>
      <trkpt lat="47.1636" lon="-1.46345">
        <ele>38</ele>
        <time>2016-01-16T00:49:12Z</time>
      </trkpt>
      <trkpt lat="47.16368" lon="-1.46393">
        <ele>37</ele>
        <time>2016-01-16T00:51:12Z</time>
      </trkpt>
      <trkpt lat="47.16455" lon="-1.46492">
        <ele>35</ele>
        <time>2016-01-16T00:53:12Z</time>
      </trkpt>
      <trkpt lat="47.16479" lon="-1.46578">
        <ele>32</ele>
        <time>2016-01-16T00:55:12Z</time>
      </trkpt>
      <trkpt lat="47.16441" lon="-1.46611">
        <ele>31</ele>
        <time>2016-01-16T00:57:12Z</time>
      </trkpt>
      <trkpt lat="47.16433" lon="-1.46649">
        <ele>30</ele>
        <time>2016-01-16T00:59:12Z</time>
      </trkpt>
      <trkpt lat="47.1641" lon="-1.46707">
        <ele>29</ele>
        <time>2016-01-16T01:01:12Z</time>
      </trkpt>
      <trkpt lat="47.16394" lon="-1.46752">
        <ele>27</ele>
        <time>2016-01-16T01:03:12Z</time>
      </trkpt>
    </trkseg>
  </trk>
</gpx>